sensor_id;sensor_type;location;lat;lon;timestamp;P1;durP1;ratioP1;P2;durP2;ratioP2
75104;SDS011;64778;47.314;8.466;2022-12-20T00:01:17;6.53;;;3.92;;
75104;SDS011;64778;47.314;8.466;2022-12-20T00:03:45;6.57;;;3.78;;
75104;SDS011;64778;47.314;8.466;2022-12-20T00:06:12;6.95;;;3.92;;
75104;SDS011;64778;47.314;8.466;2022-12-20T00:08:40;7.95;;;3.92;;
75104;SDS011;64778;47.314;8.466;2022-12-20T00:14:28;6.50;;;3.85;;
75104;SDS011;64778;47.314;8.466;2022-12-20T00:16:56;7.68;;;3.20;;
75104;SDS011;64778;47.314;8.466;2022-12-20T00:19:22;6.18;;;3.28;;
75104;SDS011;64778;47.314;8.466;2022-12-20T00:24:15;7.07;;;3.75;;
75104;SDS011;64778;47.314;8.466;2022-12-20T00:26:41;6.50;;;3.08;;
75104;SDS011;64778;47.314;8.466;2022-12-20T00:29:07;6.55;;;3.20;;
75104;SDS011;64778;47.314;8.466;2022-12-20T00:33:59;5.20;;;2.92;;
75104;SDS011;64778;47.314;8.466;2022-12-20T00:36:28;4.78;;;2.95;;
75104;SDS011;64778;47.314;8.466;2022-12-20T00:39:00;6.72;;;3.00;;
75104;SDS011;64778;47.314;8.466;2022-12-20T00:47:38;6.93;;;2.22;;
75104;SDS011;64778;47.314;8.466;2022-12-20T00:50:19;5.93;;;3.22;;
75104;SDS011;64778;47.314;8.466;2022-12-20T00:52:45;7.53;;;3.63;;
75104;SDS011;64778;47.314;8.466;2022-12-20T00:55:11;6.07;;;3.17;;
75104;SDS011;64778;47.314;8.466;2022-12-20T00:57:39;8.98;;;3.88;;
75104;SDS011;64778;47.314;8.466;2022-12-20T01:00:07;6.53;;;3.92;;
75104;SDS011;64778;47.314;8.466;2022-12-20T01:02:33;7.93;;;3.92;;
75104;SDS011;64778;47.314;8.466;2022-12-20T01:05:01;6.53;;;3.72;;
75104;SDS011;64778;47.314;8.466;2022-12-20T01:07:30;6.25;;;3.90;;
75104;SDS011;64778;47.314;8.466;2022-12-20T01:09:57;9.30;;;4.70;;
75104;SDS011;64778;47.314;8.466;2022-12-20T01:12:27;8.25;;;4.00;;
75104;SDS011;64778;47.314;8.466;2022-12-20T01:14:55;7.22;;;4.20;;
75104;SDS011;64778;47.314;8.466;2022-12-20T01:17:23;6.72;;;4.38;;
75104;SDS011;64778;47.314;8.466;2022-12-20T01:19:51;8.60;;;4.45;;
75104;SDS011;64778;47.314;8.466;2022-12-20T01:22:17;7.25;;;4.10;;
75104;SDS011;64778;47.314;8.466;2022-12-20T01:24:44;6.00;;;3.55;;
75104;SDS011;64778;47.314;8.466;2022-12-20T01:27:10;7.32;;;4.30;;
75104;SDS011;64778;47.314;8.466;2022-12-20T01:29:37;6.25;;;3.88;;
75104;SDS011;64778;47.314;8.466;2022-12-20T01:32:08;7.22;;;3.88;;
75104;SDS011;64778;47.314;8.466;2022-12-20T01:34:33;7.05;;;4.07;;
75104;SDS011;64778;47.314;8.466;2022-12-20T01:36:59;6.32;;;3.70;;
75104;SDS011;64778;47.314;8.466;2022-12-20T01:41:50;9.40;;;4.38;;
75104;SDS011;64778;47.314;8.466;2022-12-20T01:46:45;8.43;;;5.18;;
75104;SDS011;64778;47.314;8.466;2022-12-20T01:51:59;7.57;;;4.20;;
75104;SDS011;64778;47.314;8.466;2022-12-20T01:57:13;9.27;;;5.20;;
75104;SDS011;64778;47.314;8.466;2022-12-20T01:59:43;7.82;;;4.55;;
75104;SDS011;64778;47.314;8.466;2022-12-20T02:02:11;8.13;;;4.43;;
75104;SDS011;64778;47.314;8.466;2022-12-20T02:04:39;7.35;;;4.25;;
75104;SDS011;64778;47.314;8.466;2022-12-20T02:09:34;6.78;;;3.83;;
75104;SDS011;64778;47.314;8.466;2022-12-20T02:12:11;6.57;;;3.95;;
75104;SDS011;64778;47.314;8.466;2022-12-20T02:31:02;6.57;;;3.25;;
75104;SDS011;64778;47.314;8.466;2022-12-20T02:33:36;5.95;;;2.80;;
75104;SDS011;64778;47.314;8.466;2022-12-20T02:36:07;5.55;;;2.92;;
75104;SDS011;64778;47.314;8.466;2022-12-20T02:38:36;4.82;;;2.70;;
75104;SDS011;64778;47.314;8.466;2022-12-20T02:41:10;6.15;;;3.10;;
75104;SDS011;64778;47.314;8.466;2022-12-20T02:43:49;5.75;;;3.17;;
75104;SDS011;64778;47.314;8.466;2022-12-20T02:46:43;4.45;;;2.55;;
75104;SDS011;64778;47.314;8.466;2022-12-20T02:49:12;4.60;;;2.60;;
75104;SDS011;64778;47.314;8.466;2022-12-20T02:51:44;4.82;;;2.65;;
75104;SDS011;64778;47.314;8.466;2022-12-20T02:54:15;6.13;;;2.67;;
75104;SDS011;64778;47.314;8.466;2022-12-20T02:59:42;5.55;;;2.58;;
75104;SDS011;64778;47.314;8.466;2022-12-20T03:02:19;5.00;;;2.03;;
75104;SDS011;64778;47.314;8.466;2022-12-20T03:04:51;3.45;;;1.83;;
75104;SDS011;64778;47.314;8.466;2022-12-20T03:07:18;3.83;;;2.00;;
75104;SDS011;64778;47.314;8.466;2022-12-20T03:16:23;3.60;;;1.60;;
75104;SDS011;64778;47.314;8.466;2022-12-20T03:18:51;3.85;;;2.10;;
75104;SDS011;64778;47.314;8.466;2022-12-20T03:21:17;4.00;;;1.95;;
75104;SDS011;64778;47.314;8.466;2022-12-20T03:23:45;2.88;;;1.67;;
75104;SDS011;64778;47.314;8.466;2022-12-20T03:26:10;3.45;;;1.75;;
75104;SDS011;64778;47.314;8.466;2022-12-20T03:31:04;5.25;;;2.25;;
75104;SDS011;64778;47.314;8.466;2022-12-20T03:33:30;3.95;;;1.88;;
75104;SDS011;64778;47.314;8.466;2022-12-20T03:35:57;4.03;;;2.15;;
75104;SDS011;64778;47.314;8.466;2022-12-20T03:38:25;5.00;;;1.70;;
75104;SDS011;64778;47.314;8.466;2022-12-20T03:40:53;4.22;;;1.88;;
75104;SDS011;64778;47.314;8.466;2022-12-20T03:43:21;2.75;;;1.50;;
75104;SDS011;64778;47.314;8.466;2022-12-20T03:49:11;3.53;;;1.63;;
75104;SDS011;64778;47.314;8.466;2022-12-20T03:51:36;2.90;;;1.67;;
75104;SDS011;64778;47.314;8.466;2022-12-20T03:54:02;5.05;;;1.95;;
75104;SDS011;64778;47.314;8.466;2022-12-20T03:56:28;3.30;;;1.60;;
75104;SDS011;64778;47.314;8.466;2022-12-20T03:58:55;3.72;;;1.70;;
75104;SDS011;64778;47.314;8.466;2022-12-20T04:01:22;2.63;;;1.50;;
75104;SDS011;64778;47.314;8.466;2022-12-20T04:03:53;2.58;;;1.50;;
75104;SDS011;64778;47.314;8.466;2022-12-20T04:06:19;3.72;;;1.77;;
75104;SDS011;64778;47.314;8.466;2022-12-20T04:08:51;3.60;;;1.75;;
75104;SDS011;64778;47.314;8.466;2022-12-20T04:11:19;2.90;;;1.40;;
75104;SDS011;64778;47.314;8.466;2022-12-20T04:13:45;4.13;;;1.67;;
75104;SDS011;64778;47.314;8.466;2022-12-20T04:16:19;5.15;;;1.67;;
75104;SDS011;64778;47.314;8.466;2022-12-20T04:18:48;2.97;;;1.60;;
75104;SDS011;64778;47.314;8.466;2022-12-20T04:21:14;5.10;;;1.42;;
75104;SDS011;64778;47.314;8.466;2022-12-20T04:23:45;2.22;;;1.20;;
75104;SDS011;64778;47.314;8.466;2022-12-20T04:26:13;2.88;;;1.42;;
75104;SDS011;64778;47.314;8.466;2022-12-20T04:28:39;2.88;;;1.05;;
75104;SDS011;64778;47.314;8.466;2022-12-20T04:33:32;4.45;;;1.40;;
75104;SDS011;64778;47.314;8.466;2022-12-20T04:35:58;3.00;;;1.40;;
75104;SDS011;64778;47.314;8.466;2022-12-20T04:38:23;4.15;;;1.98;;
75104;SDS011;64778;47.314;8.466;2022-12-20T04:40:50;2.60;;;1.40;;
75104;SDS011;64778;47.314;8.466;2022-12-20T04:43:17;3.05;;;1.33;;
75104;SDS011;64778;47.314;8.466;2022-12-20T04:45:48;3.20;;;1.40;;
75104;SDS011;64778;47.314;8.466;2022-12-20T04:48:18;2.72;;;1.38;;
75104;SDS011;64778;47.314;8.466;2022-12-20T04:50:49;3.53;;;1.52;;
75104;SDS011;64778;47.314;8.466;2022-12-20T04:53:18;3.65;;;1.88;;
75104;SDS011;64778;47.314;8.466;2022-12-20T04:56:03;2.92;;;1.35;;
75104;SDS011;64778;47.314;8.466;2022-12-20T05:01:53;2.75;;;1.40;;
75104;SDS011;64778;47.314;8.466;2022-12-20T05:07:41;2.80;;;1.50;;
75104;SDS011;64778;47.314;8.466;2022-12-20T05:10:06;2.35;;;1.17;;
75104;SDS011;64778;47.314;8.466;2022-12-20T05:12:32;2.78;;;1.30;;
75104;SDS011;64778;47.314;8.466;2022-12-20T05:18:20;2.35;;;1.30;;
75104;SDS011;64778;47.314;8.466;2022-12-20T05:20:46;3.05;;;1.50;;
75104;SDS011;64778;47.314;8.466;2022-12-20T05:23:12;2.00;;;1.17;;
75104;SDS011;64778;47.314;8.466;2022-12-20T05:25:59;2.60;;;1.27;;
75104;SDS011;64778;47.314;8.466;2022-12-20T05:28:43;2.75;;;1.27;;
75104;SDS011;64778;47.314;8.466;2022-12-20T05:31:09;2.88;;;1.33;;
75104;SDS011;64778;47.314;8.466;2022-12-20T05:33:37;3.42;;;1.40;;
75104;SDS011;64778;47.314;8.466;2022-12-20T05:36:05;2.80;;;1.40;;
75104;SDS011;64778;47.314;8.466;2022-12-20T05:38:33;2.20;;;1.20;;
75104;SDS011;64778;47.314;8.466;2022-12-20T05:40:59;2.45;;;1.60;;
75104;SDS011;64778;47.314;8.466;2022-12-20T05:43:29;2.85;;;1.50;;
75104;SDS011;64778;47.314;8.466;2022-12-20T05:45:54;2.40;;;1.27;;
75104;SDS011;64778;47.314;8.466;2022-12-20T05:50:46;3.15;;;1.70;;
75104;SDS011;64778;47.314;8.466;2022-12-20T05:53:15;4.22;;;1.60;;
75104;SDS011;64778;47.314;8.466;2022-12-20T05:55:47;2.33;;;1.50;;
75104;SDS011;64778;47.314;8.466;2022-12-20T05:58:16;4.50;;;2.05;;
75104;SDS011;64778;47.314;8.466;2022-12-20T06:00:45;5.15;;;1.83;;
75104;SDS011;64778;47.314;8.466;2022-12-20T06:03:13;4.05;;;1.90;;
75104;SDS011;64778;47.314;8.466;2022-12-20T06:05:44;3.83;;;2.17;;
75104;SDS011;64778;47.314;8.466;2022-12-20T06:08:12;6.47;;;2.83;;
75104;SDS011;64778;47.314;8.466;2022-12-20T06:10:40;4.22;;;2.08;;
75104;SDS011;64778;47.314;8.466;2022-12-20T06:15:55;4.65;;;2.17;;
75104;SDS011;64778;47.314;8.466;2022-12-20T06:18:24;5.45;;;2.75;;
75104;SDS011;64778;47.314;8.466;2022-12-20T06:20:50;3.67;;;1.95;;
75104;SDS011;64778;47.314;8.466;2022-12-20T06:23:19;4.22;;;2.30;;
75104;SDS011;64778;47.314;8.466;2022-12-20T06:25:45;6.15;;;3.22;;
75104;SDS011;64778;47.314;8.466;2022-12-20T06:28:11;5.07;;;2.70;;
75104;SDS011;64778;47.314;8.466;2022-12-20T06:30:42;4.18;;;2.20;;
75104;SDS011;64778;47.314;8.466;2022-12-20T06:33:12;4.72;;;2.35;;
75104;SDS011;64778;47.314;8.466;2022-12-20T06:35:41;4.25;;;2.28;;
75104;SDS011;64778;47.314;8.466;2022-12-20T06:38:06;6.15;;;2.72;;
75104;SDS011;64778;47.314;8.466;2022-12-20T06:40:34;5.65;;;3.00;;
75104;SDS011;64778;47.314;8.466;2022-12-20T06:43:02;10.25;;;4.25;;
75104;SDS011;64778;47.314;8.466;2022-12-20T06:45:30;8.02;;;4.28;;
75104;SDS011;64778;47.314;8.466;2022-12-20T06:47:56;10.02;;;4.75;;
75104;SDS011;64778;47.314;8.466;2022-12-20T06:53:44;8.70;;;4.88;;
75104;SDS011;64778;47.314;8.466;2022-12-20T06:56:09;8.35;;;3.65;;
75104;SDS011;64778;47.314;8.466;2022-12-20T07:01:01;3.42;;;2.05;;
75104;SDS011;64778;47.314;8.466;2022-12-20T07:05:54;3.10;;;1.42;;
75104;SDS011;64778;47.314;8.466;2022-12-20T07:14:08;4.03;;;1.60;;
75104;SDS011;64778;47.314;8.466;2022-12-20T07:19:56;5.15;;;2.50;;
75104;SDS011;64778;47.314;8.466;2022-12-20T07:22:24;5.07;;;2.13;;
75104;SDS011;64778;47.314;8.466;2022-12-20T07:24:53;6.43;;;2.85;;
75104;SDS011;64778;47.314;8.466;2022-12-20T07:27:21;4.80;;;2.22;;
75104;SDS011;64778;47.314;8.466;2022-12-20T07:29:46;6.90;;;3.33;;
75104;SDS011;64778;47.314;8.466;2022-12-20T07:32:12;6.00;;;2.70;;
75104;SDS011;64778;47.314;8.466;2022-12-20T07:37:04;3.28;;;1.98;;
75104;SDS011;64778;47.314;8.466;2022-12-20T07:39:32;5.25;;;2.05;;
75104;SDS011;64778;47.314;8.466;2022-12-20T07:45:20;5.93;;;3.20;;
75104;SDS011;64778;47.314;8.466;2022-12-20T07:47:46;6.30;;;3.13;;
75104;SDS011;64778;47.314;8.466;2022-12-20T07:50:12;6.15;;;2.80;;
75104;SDS011;64778;47.314;8.466;2022-12-20T07:52:38;5.32;;;2.38;;
75104;SDS011;64778;47.314;8.466;2022-12-20T07:55:10;4.75;;;2.20;;
75104;SDS011;64778;47.314;8.466;2022-12-20T07:57:39;3.25;;;1.80;;
75104;SDS011;64778;47.314;8.466;2022-12-20T08:00:13;4.05;;;1.67;;
75104;SDS011;64778;47.314;8.466;2022-12-20T08:02:55;4.50;;;1.70;;
75104;SDS011;64778;47.314;8.466;2022-12-20T08:05:29;6.70;;;1.60;;
75104;SDS011;64778;47.314;8.466;2022-12-20T08:10:24;4.45;;;1.55;;
75104;SDS011;64778;47.314;8.466;2022-12-20T08:16:12;3.30;;;1.80;;
75104;SDS011;64778;47.314;8.466;2022-12-20T08:18:38;4.63;;;1.65;;
75104;SDS011;64778;47.314;8.466;2022-12-20T08:23:29;5.97;;;2.00;;
75104;SDS011;64778;47.314;8.466;2022-12-20T08:25:59;5.18;;;2.33;;
75104;SDS011;64778;47.314;8.466;2022-12-20T08:28:25;3.45;;;2.10;;
75104;SDS011;64778;47.314;8.466;2022-12-20T08:30:58;4.00;;;2.58;;
75104;SDS011;64778;47.314;8.466;2022-12-20T08:33:28;4.55;;;2.40;;
75104;SDS011;64778;47.314;8.466;2022-12-20T08:35:58;3.88;;;2.10;;
75104;SDS011;64778;47.314;8.466;2022-12-20T08:38:26;4.68;;;2.95;;
75104;SDS011;64778;47.314;8.466;2022-12-20T08:40:53;77.88;;;31.02;;
75104;SDS011;64778;47.314;8.466;2022-12-20T08:43:19;139.20;;;53.25;;
75104;SDS011;64778;47.314;8.466;2022-12-20T08:45:51;111.78;;;40.78;;
75104;SDS011;64778;47.314;8.466;2022-12-20T08:48:18;54.75;;;20.90;;
75104;SDS011;64778;47.314;8.466;2022-12-20T08:50:44;50.03;;;21.13;;
75104;SDS011;64778;47.314;8.466;2022-12-20T08:53:12;37.25;;;17.38;;
75104;SDS011;64778;47.314;8.466;2022-12-20T08:55:42;35.08;;;16.55;;
75104;SDS011;64778;47.314;8.466;2022-12-20T08:58:09;9.18;;;4.78;;
75104;SDS011;64778;47.314;8.466;2022-12-20T09:00:35;5.05;;;2.47;;
75104;SDS011;64778;47.314;8.466;2022-12-20T09:05:33;3.53;;;2.13;;
75104;SDS011;64778;47.314;8.466;2022-12-20T09:07:59;5.35;;;2.42;;
75104;SDS011;64778;47.314;8.466;2022-12-20T09:10:24;3.88;;;2.10;;
75104;SDS011;64778;47.314;8.466;2022-12-20T09:15:15;3.13;;;1.83;;
75104;SDS011;64778;47.314;8.466;2022-12-20T09:21:06;4.53;;;2.17;;
75104;SDS011;64778;47.314;8.466;2022-12-20T09:23:35;3.45;;;1.90;;
75104;SDS011;64778;47.314;8.466;2022-12-20T09:26:02;3.30;;;1.98;;
75104;SDS011;64778;47.314;8.466;2022-12-20T09:28:32;6.20;;;2.30;;
75104;SDS011;64778;47.314;8.466;2022-12-20T09:34:20;18.00;;;8.68;;
75104;SDS011;64778;47.314;8.466;2022-12-20T09:39:11;10.88;;;6.07;;
75104;SDS011;64778;47.314;8.466;2022-12-20T09:41:40;11.98;;;7.22;;
75104;SDS011;64778;47.314;8.466;2022-12-20T09:47:30;14.23;;;7.72;;
75104;SDS011;64778;47.314;8.466;2022-12-20T09:50:00;11.13;;;6.85;;
75104;SDS011;64778;47.314;8.466;2022-12-20T10:00:43;5.72;;;3.08;;
75104;SDS011;64778;47.314;8.466;2022-12-20T10:03:30;4.07;;;2.45;;
75104;SDS011;64778;47.314;8.466;2022-12-20T10:14:10;3.22;;;1.60;;
75104;SDS011;64778;47.314;8.466;2022-12-20T10:16:46;3.83;;;1.65;;
75104;SDS011;64778;47.314;8.466;2022-12-20T10:22:16;12.15;;;6.57;;
75104;SDS011;64778;47.314;8.466;2022-12-20T10:24:57;6.60;;;3.10;;
75104;SDS011;64778;47.314;8.466;2022-12-20T10:30:14;6.32;;;3.80;;
75104;SDS011;64778;47.314;8.466;2022-12-20T10:32:43;3.85;;;2.08;;
75104;SDS011;64778;47.314;8.466;2022-12-20T10:40:35;3.50;;;2.65;;
75104;SDS011;64778;47.314;8.466;2022-12-20T10:43:25;4.65;;;2.60;;
75104;SDS011;64778;47.314;8.466;2022-12-20T10:46:10;4.63;;;2.72;;
75104;SDS011;64778;47.314;8.466;2022-12-20T10:48:39;4.43;;;2.85;;
75104;SDS011;64778;47.314;8.466;2022-12-20T10:53:36;6.00;;;2.75;;
75104;SDS011;64778;47.314;8.466;2022-12-20T10:56:31;5.32;;;2.40;;
75104;SDS011;64778;47.314;8.466;2022-12-20T10:59:01;3.90;;;2.40;;
75104;SDS011;64778;47.314;8.466;2022-12-20T11:01:34;3.33;;;1.90;;
75104;SDS011;64778;47.314;8.466;2022-12-20T11:12:02;2.95;;;1.73;;
75104;SDS011;64778;47.314;8.466;2022-12-20T11:14:28;3.03;;;1.60;;
75104;SDS011;64778;47.314;8.466;2022-12-20T11:16:55;3.10;;;1.75;;
75104;SDS011;64778;47.314;8.466;2022-12-20T11:22:52;1.75;;;1.35;;
75104;SDS011;64778;47.314;8.466;2022-12-20T11:27:58;3.47;;;1.80;;
75104;SDS011;64778;47.314;8.466;2022-12-20T11:33:52;3.50;;;2.30;;
75104;SDS011;64778;47.314;8.466;2022-12-20T11:39:16;5.15;;;2.95;;
75104;SDS011;64778;47.314;8.466;2022-12-20T11:47:03;5.65;;;2.83;;
75104;SDS011;64778;47.314;8.466;2022-12-20T11:52:24;5.00;;;2.67;;
75104;SDS011;64778;47.314;8.466;2022-12-20T11:55:05;4.72;;;2.67;;
75104;SDS011;64778;47.314;8.466;2022-12-20T12:00:26;4.25;;;2.30;;
75104;SDS011;64778;47.314;8.466;2022-12-20T12:03:00;4.13;;;2.25;;
75104;SDS011;64778;47.314;8.466;2022-12-20T12:05:59;2.95;;;1.90;;
75104;SDS011;64778;47.314;8.466;2022-12-20T12:08:47;4.78;;;2.00;;
75104;SDS011;64778;47.314;8.466;2022-12-20T12:11:26;3.00;;;1.77;;
75104;SDS011;64778;47.314;8.466;2022-12-20T12:13:58;4.60;;;2.08;;
75104;SDS011;64778;47.314;8.466;2022-12-20T12:16:33;6.13;;;2.10;;
75104;SDS011;64778;47.314;8.466;2022-12-20T12:19:04;7.15;;;3.20;;
75104;SDS011;64778;47.314;8.466;2022-12-20T12:21:39;6.47;;;2.75;;
75104;SDS011;64778;47.314;8.466;2022-12-20T12:24:27;5.40;;;2.70;;
75104;SDS011;64778;47.314;8.466;2022-12-20T12:26:59;8.32;;;2.50;;
75104;SDS011;64778;47.314;8.466;2022-12-20T12:29:25;6.70;;;2.67;;
75104;SDS011;64778;47.314;8.466;2022-12-20T12:32:04;7.20;;;2.95;;
75104;SDS011;64778;47.314;8.466;2022-12-20T12:45:55;5.22;;;3.40;;
75104;SDS011;64778;47.314;8.466;2022-12-20T12:51:06;6.35;;;3.92;;
75104;SDS011;64778;47.314;8.466;2022-12-20T13:04:22;7.97;;;3.88;;
75104;SDS011;64778;47.314;8.466;2022-12-20T13:11:53;4.63;;;3.08;;
75104;SDS011;64778;47.314;8.466;2022-12-20T13:19:36;6.72;;;3.72;;
75104;SDS011;64778;47.314;8.466;2022-12-20T13:43:28;10.73;;;4.07;;
75104;SDS011;64778;47.314;8.466;2022-12-20T13:46:13;9.18;;;4.45;;
75104;SDS011;64778;47.314;8.466;2022-12-20T13:49:01;8.15;;;4.13;;
75104;SDS011;64778;47.314;8.466;2022-12-20T13:51:28;9.80;;;4.38;;
75104;SDS011;64778;47.314;8.466;2022-12-20T13:53:59;12.32;;;5.93;;
75104;SDS011;64778;47.314;8.466;2022-12-20T13:59:11;6.55;;;4.00;;
75104;SDS011;64778;47.314;8.466;2022-12-20T14:01:49;8.30;;;3.80;;
75104;SDS011;64778;47.314;8.466;2022-12-20T14:04:17;9.98;;;3.70;;
75104;SDS011;64778;47.314;8.466;2022-12-20T14:06:48;6.55;;;3.78;;
75104;SDS011;64778;47.314;8.466;2022-12-20T14:12:05;7.47;;;3.85;;
75104;SDS011;64778;47.314;8.466;2022-12-20T14:14:42;9.75;;;3.85;;
75104;SDS011;64778;47.314;8.466;2022-12-20T14:17:22;6.68;;;4.05;;
75104;SDS011;64778;47.314;8.466;2022-12-20T14:22:32;5.90;;;3.20;;
75104;SDS011;64778;47.314;8.466;2022-12-20T14:24:59;5.93;;;3.72;;
75104;SDS011;64778;47.314;8.466;2022-12-20T14:27:26;5.88;;;3.22;;
75104;SDS011;64778;47.314;8.466;2022-12-20T14:29:57;4.70;;;3.03;;
75104;SDS011;64778;47.314;8.466;2022-12-20T14:32:25;4.85;;;3.53;;
75104;SDS011;64778;47.314;8.466;2022-12-20T14:37:33;6.78;;;3.15;;
75104;SDS011;64778;47.314;8.466;2022-12-20T14:42:34;4.88;;;3.25;;
75104;SDS011;64778;47.314;8.466;2022-12-20T14:47:37;6.43;;;3.58;;
75104;SDS011;64778;47.314;8.466;2022-12-20T14:50:16;5.72;;;2.78;;
75104;SDS011;64778;47.314;8.466;2022-12-20T14:52:47;8.13;;;3.42;;
75104;SDS011;64778;47.314;8.466;2022-12-20T15:03:02;5.32;;;3.63;;
75104;SDS011;64778;47.314;8.466;2022-12-20T15:13:33;5.40;;;3.17;;
75104;SDS011;64778;47.314;8.466;2022-12-20T15:16:04;6.78;;;3.47;;
75104;SDS011;64778;47.314;8.466;2022-12-20T15:19:00;4.47;;;3.10;;
75104;SDS011;64778;47.314;8.466;2022-12-20T15:24:08;7.30;;;3.05;;
75104;SDS011;64778;47.314;8.466;2022-12-20T15:26:38;9.90;;;3.45;;
75104;SDS011;64778;47.314;8.466;2022-12-20T15:29:06;6.60;;;3.67;;
75104;SDS011;64778;47.314;8.466;2022-12-20T15:31:39;4.93;;;2.83;;
75104;SDS011;64778;47.314;8.466;2022-12-20T15:34:14;5.13;;;2.60;;
75104;SDS011;64778;47.314;8.466;2022-12-20T15:36:46;6.85;;;3.30;;
75104;SDS011;64778;47.314;8.466;2022-12-20T15:39:14;5.20;;;2.60;;
75104;SDS011;64778;47.314;8.466;2022-12-20T15:41:43;7.68;;;3.00;;
75104;SDS011;64778;47.314;8.466;2022-12-20T15:44:16;5.25;;;3.05;;
75104;SDS011;64778;47.314;8.466;2022-12-20T15:46:47;5.47;;;2.83;;
75104;SDS011;64778;47.314;8.466;2022-12-20T15:51:43;6.35;;;3.20;;
75104;SDS011;64778;47.314;8.466;2022-12-20T15:56:52;10.13;;;3.75;;
75104;SDS011;64778;47.314;8.466;2022-12-20T15:59:20;5.47;;;3.08;;
75104;SDS011;64778;47.314;8.466;2022-12-20T16:04:16;6.15;;;1.92;;
75104;SDS011;64778;47.314;8.466;2022-12-20T16:06:44;6.53;;;2.22;;
75104;SDS011;64778;47.314;8.466;2022-12-20T16:09:11;4.85;;;2.35;;
75104;SDS011;64778;47.314;8.466;2022-12-20T16:14:02;6.30;;;2.53;;
75104;SDS011;64778;47.314;8.466;2022-12-20T16:16:34;4.70;;;2.80;;
75104;SDS011;64778;47.314;8.466;2022-12-20T16:19:02;4.45;;;2.40;;
75104;SDS011;64778;47.314;8.466;2022-12-20T16:24:08;4.75;;;2.65;;
75104;SDS011;64778;47.314;8.466;2022-12-20T16:26:37;4.72;;;2.40;;
75104;SDS011;64778;47.314;8.466;2022-12-20T16:29:05;7.07;;;2.97;;
75104;SDS011;64778;47.314;8.466;2022-12-20T16:31:34;7.35;;;3.00;;
75104;SDS011;64778;47.314;8.466;2022-12-20T16:34:02;3.63;;;1.20;;
75104;SDS011;64778;47.314;8.466;2022-12-20T16:36:30;2.80;;;1.50;;
75104;SDS011;64778;47.314;8.466;2022-12-20T16:38:58;4.03;;;2.47;;
75104;SDS011;64778;47.314;8.466;2022-12-20T16:41:28;6.95;;;2.13;;
75104;SDS011;64778;47.314;8.466;2022-12-20T16:43:55;4.80;;;2.40;;
75104;SDS011;64778;47.314;8.466;2022-12-20T16:46:23;5.72;;;3.15;;
75104;SDS011;64778;47.314;8.466;2022-12-20T16:48:51;8.63;;;4.03;;
75104;SDS011;64778;47.314;8.466;2022-12-20T16:51:31;5.47;;;3.00;;
75104;SDS011;64778;47.314;8.466;2022-12-20T16:56:24;4.28;;;2.67;;
75104;SDS011;64778;47.314;8.466;2022-12-20T16:58:51;4.80;;;1.50;;
75104;SDS011;64778;47.314;8.466;2022-12-20T17:01:17;2.75;;;1.85;;
75104;SDS011;64778;47.314;8.466;2022-12-20T17:03:48;11.52;;;6.13;;
75104;SDS011;64778;47.314;8.466;2022-12-20T17:06:15;2.75;;;1.52;;
75104;SDS011;64778;47.314;8.466;2022-12-20T17:08:43;2.67;;;1.02;;
75104;SDS011;64778;47.314;8.466;2022-12-20T17:11:20;3.40;;;2.28;;
75104;SDS011;64778;47.314;8.466;2022-12-20T17:13:48;3.50;;;1.92;;
75104;SDS011;64778;47.314;8.466;2022-12-20T17:16:16;2.92;;;1.30;;
75104;SDS011;64778;47.314;8.466;2022-12-20T17:18:43;3.05;;;1.30;;
75104;SDS011;64778;47.314;8.466;2022-12-20T17:21:55;3.40;;;1.98;;
75104;SDS011;64778;47.314;8.466;2022-12-20T17:23:56;4.07;;;2.38;;
75104;SDS011;64778;47.314;8.466;2022-12-20T17:26:28;3.67;;;2.20;;
75104;SDS011;64778;47.314;8.466;2022-12-20T17:28:54;4.45;;;2.42;;
75104;SDS011;64778;47.314;8.466;2022-12-20T17:34:12;6.15;;;2.55;;
75104;SDS011;64778;47.314;8.466;2022-12-20T17:36:45;3.50;;;2.10;;
75104;SDS011;64778;47.314;8.466;2022-12-20T17:39:12;4.20;;;2.20;;
75104;SDS011;64778;47.314;8.466;2022-12-20T17:41:38;4.80;;;2.42;;
75104;SDS011;64778;47.314;8.466;2022-12-20T17:44:06;4.28;;;2.50;;
75104;SDS011;64778;47.314;8.466;2022-12-20T17:46:39;4.22;;;2.60;;
75104;SDS011;64778;47.314;8.466;2022-12-20T17:49:06;5.63;;;2.97;;
75104;SDS011;64778;47.314;8.466;2022-12-20T17:53:58;6.20;;;2.97;;
75104;SDS011;64778;47.314;8.466;2022-12-20T17:56:29;5.53;;;2.67;;
75104;SDS011;64778;47.314;8.466;2022-12-20T17:58:56;7.32;;;2.58;;
75104;SDS011;64778;47.314;8.466;2022-12-20T18:01:26;6.47;;;2.58;;
75104;SDS011;64778;47.314;8.466;2022-12-20T18:03:56;5.45;;;2.95;;
75104;SDS011;64778;47.314;8.466;2022-12-20T18:06:25;6.38;;;3.25;;
75104;SDS011;64778;47.314;8.466;2022-12-20T18:08:52;5.85;;;3.13;;
75104;SDS011;64778;47.314;8.466;2022-12-20T18:11:22;4.85;;;2.83;;
75104;SDS011;64778;47.314;8.466;2022-12-20T18:13:50;4.90;;;3.08;;
75104;SDS011;64778;47.314;8.466;2022-12-20T18:16:19;7.70;;;3.80;;
75104;SDS011;64778;47.314;8.466;2022-12-20T18:18:47;5.80;;;2.88;;
75104;SDS011;64778;47.314;8.466;2022-12-20T18:21:16;4.90;;;2.85;;
75104;SDS011;64778;47.314;8.466;2022-12-20T18:23:43;5.07;;;2.60;;
75104;SDS011;64778;47.314;8.466;2022-12-20T18:28:43;5.20;;;2.97;;
75104;SDS011;64778;47.314;8.466;2022-12-20T18:31:12;5.75;;;2.80;;
75104;SDS011;64778;47.314;8.466;2022-12-20T18:33:49;6.47;;;3.05;;
75104;SDS011;64778;47.314;8.466;2022-12-20T18:36:16;5.95;;;3.05;;
75104;SDS011;64778;47.314;8.466;2022-12-20T18:38:46;4.47;;;2.58;;
75104;SDS011;64778;47.314;8.466;2022-12-20T18:41:15;4.93;;;2.72;;
75104;SDS011;64778;47.314;8.466;2022-12-20T18:43:43;7.93;;;3.97;;
75104;SDS011;64778;47.314;8.466;2022-12-20T18:46:13;5.05;;;3.10;;
75104;SDS011;64778;47.314;8.466;2022-12-20T18:48:46;6.30;;;3.60;;
75104;SDS011;64778;47.314;8.466;2022-12-20T18:51:16;8.98;;;3.45;;
75104;SDS011;64778;47.314;8.466;2022-12-20T18:53:44;5.28;;;2.80;;
75104;SDS011;64778;47.314;8.466;2022-12-20T18:56:15;7.88;;;5.15;;
75104;SDS011;64778;47.314;8.466;2022-12-20T18:58:43;8.32;;;5.07;;
75104;SDS011;64778;47.314;8.466;2022-12-20T19:01:15;7.82;;;4.30;;
75104;SDS011;64778;47.314;8.466;2022-12-20T19:03:47;7.43;;;3.15;;
75104;SDS011;64778;47.314;8.466;2022-12-20T19:06:15;7.38;;;3.90;;
75104;SDS011;64778;47.314;8.466;2022-12-20T19:08:41;5.40;;;3.10;;
75104;SDS011;64778;47.314;8.466;2022-12-20T19:11:12;5.15;;;2.92;;
75104;SDS011;64778;47.314;8.466;2022-12-20T19:13:40;5.13;;;2.28;;
75104;SDS011;64778;47.314;8.466;2022-12-20T19:16:10;7.10;;;2.72;;
75104;SDS011;64778;47.314;8.466;2022-12-20T19:18:35;5.30;;;2.78;;
75104;SDS011;64778;47.314;8.466;2022-12-20T19:21:07;5.03;;;2.28;;
75104;SDS011;64778;47.314;8.466;2022-12-20T19:23:33;4.10;;;2.30;;
75104;SDS011;64778;47.314;8.466;2022-12-20T19:26:04;3.60;;;2.00;;
75104;SDS011;64778;47.314;8.466;2022-12-20T19:28:32;2.67;;;1.70;;
75104;SDS011;64778;47.314;8.466;2022-12-20T19:31:06;3.63;;;1.67;;
75104;SDS011;64778;47.314;8.466;2022-12-20T19:33:37;3.78;;;1.65;;
75104;SDS011;64778;47.314;8.466;2022-12-20T19:36:14;4.72;;;1.77;;
75104;SDS011;64778;47.314;8.466;2022-12-20T19:38:45;2.08;;;1.20;;
75104;SDS011;64778;47.314;8.466;2022-12-20T19:41:17;5.35;;;2.15;;
75104;SDS011;64778;47.314;8.466;2022-12-20T19:43:46;7.75;;;2.60;;
75104;SDS011;64778;47.314;8.466;2022-12-20T19:46:15;2.47;;;1.55;;
75104;SDS011;64778;47.314;8.466;2022-12-20T19:48:42;1.70;;;1.05;;
75104;SDS011;64778;47.314;8.466;2022-12-20T19:51:10;3.75;;;1.65;;
75104;SDS011;64778;47.314;8.466;2022-12-20T19:53:40;3.88;;;1.40;;
75104;SDS011;64778;47.314;8.466;2022-12-20T19:56:08;3.95;;;1.40;;
75104;SDS011;64778;47.314;8.466;2022-12-20T19:58:37;3.35;;;1.27;;
75104;SDS011;64778;47.314;8.466;2022-12-20T20:01:04;6.60;;;2.40;;